createdAt,value
2023-05-23T00:01:19.669Z,68.90
2023-05-23T00:05:03.543Z,68.72
2023-05-23T00:08:47.739Z,69.43
2023-05-23T00:12:30.588Z,69.64
2023-05-23T00:16:14.977Z,69.64
2023-05-23T00:19:58.882Z,69.65
2023-05-23T00:23:42.364Z,69.96
2023-05-23T00:27:26.790Z,70.34
2023-05-23T00:31:09.786Z,70.28
2023-05-23T00:34:54.357Z,70.33
2023-05-23T00:38:37.107Z,70.58
2023-05-23T00:42:19.825Z,70.45
2023-05-23T00:46:04.210Z,70.67
2023-05-23T00:49:47.131Z,70.59
2023-05-23T00:53:29.972Z,70.82
2023-05-23T00:57:12.713Z,70.66
2023-05-23T01:00:55.792Z,70.41
2023-05-23T01:04:40.113Z,70.18
2023-05-23T01:08:22.847Z,69.90
2023-05-23T01:12:18.607Z,70.09
2023-05-23T01:16:05.987Z,70.45
2023-05-23T01:19:58.332Z,70.22
2023-05-23T01:24:05.036Z,70.28
2023-05-23T01:27:54.243Z,70.58
2023-05-23T01:31:38.154Z,70.38
2023-05-23T01:35:25.790Z,70.42
2023-05-23T01:39:08.548Z,70.80
2023-05-23T01:42:53.365Z,71.16
2023-05-23T01:46:37.275Z,71.16
2023-05-23T01:50:20.141Z,71.43
2023-05-23T01:54:03.002Z,71.28
2023-05-23T01:57:48.505Z,71.28
2023-05-23T02:01:32.820Z,71.19
2023-05-23T02:05:15.662Z,71.37
2023-05-23T02:08:58.666Z,71.16
2023-05-23T02:12:41.416Z,71.67
2023-05-23T02:16:26.137Z,72.05
2023-05-23T02:20:11.436Z,72.14
2023-05-23T02:23:54.214Z,72.25
2023-05-23T02:27:36.892Z,72.31
2023-05-23T02:31:19.653Z,72.74
2023-05-23T02:35:02.456Z,73.19
2023-05-23T02:38:46.534Z,73.50
2023-05-23T02:42:29.283Z,74.03
2023-05-23T02:46:13.737Z,73.81
2023-05-23T02:49:56.499Z,74.41
2023-05-23T02:53:39.473Z,74.47
2023-05-23T02:57:23.604Z,74.68
2023-05-23T03:01:08.466Z,75.66
2023-05-23T03:04:51.208Z,75.84
2023-05-23T03:08:33.915Z,76.07
2023-05-23T03:12:16.611Z,76.62
2023-05-23T03:16:00.874Z,76.93
2023-05-23T03:19:43.725Z,76.84
2023-05-23T03:23:29.512Z,77.49
2023-05-23T03:27:12.285Z,77.29
2023-05-23T03:30:54.942Z,78.30
2023-05-23T03:34:39.038Z,78.12
2023-05-23T03:38:22.083Z,78.69
2023-05-23T03:42:05.126Z,78.75
2023-05-23T03:45:48.245Z,78.78
2023-05-23T03:49:31.006Z,78.74
2023-05-23T03:53:15.078Z,78.90
2023-05-23T03:56:57.940Z,79.16
2023-05-23T04:00:40.899Z,79.25
2023-05-23T04:04:25.118Z,79.77
2023-05-23T04:08:08.202Z,79.95
2023-05-23T04:11:53.021Z,80.29
2023-05-23T04:15:36.231Z,80.78
2023-05-23T04:19:18.989Z,81.03
2023-05-23T04:23:01.773Z,81.31
2023-05-23T04:26:45.059Z,80.95
2023-05-23T04:30:30.560Z,80.26
2023-05-23T04:34:14.974Z,80.52
2023-05-23T04:37:57.687Z,80.54
2023-05-23T04:41:45.360Z,81.17
2023-05-23T04:45:32.555Z,81.73
2023-05-23T04:49:19.858Z,81.93
2023-05-23T04:53:03.573Z,81.32
2023-05-23T04:56:46.494Z,81.48
2023-05-23T05:00:31.343Z,81.49
2023-05-23T05:04:14.062Z,81.05
2023-05-23T05:07:57.095Z,81.00
2023-05-23T05:11:39.885Z,80.77
2023-05-23T05:15:22.585Z,81.06
2023-05-23T05:19:07.027Z,79.77
2023-05-23T05:22:56.892Z,79.35
2023-05-23T05:26:42.777Z,78.71
2023-05-23T05:30:25.502Z,78.08
2023-05-23T05:34:09.628Z,78.49
2023-05-23T05:37:55.091Z,77.56
2023-05-23T05:41:37.889Z,77.01
2023-05-23T05:45:20.703Z,77.42
2023-05-23T05:49:03.578Z,76.71
2023-05-23T05:52:47.695Z,76.80
2023-05-23T05:56:30.445Z,75.81
2023-05-23T06:00:15.259Z,75.80
2023-05-23T06:03:58.532Z,76.19
2023-05-23T06:07:41.947Z,77.06
2023-05-23T06:11:26.610Z,77.47
2023-05-23T06:15:10.480Z,76.48
2023-05-23T06:18:53.320Z,77.76
2023-05-23T06:22:36.152Z,77.47
2023-05-23T06:26:18.907Z,77.66
2023-05-23T06:30:03.527Z,77.62
2023-05-23T06:33:46.304Z,77.97
2023-05-23T06:37:29.020Z,77.30
2023-05-23T06:41:11.969Z,77.38
2023-05-23T06:44:54.770Z,78.18
2023-05-23T06:48:39.280Z,79.07
2023-05-23T06:52:21.996Z,79.22
2023-05-23T06:56:04.967Z,78.86
2023-05-23T06:59:47.676Z,77.92
2023-05-23T07:03:30.429Z,78.23
2023-05-23T07:07:14.820Z,79.01
2023-05-23T07:11:00.297Z,77.16
2023-05-23T07:14:42.997Z,76.60
2023-05-23T07:18:26.121Z,75.21
2023-05-23T07:22:09.131Z,76.37
2023-05-23T07:26:01.731Z,75.84
2023-05-23T07:29:45.790Z,75.54
2023-05-23T07:33:28.876Z,76.14
2023-05-23T07:37:11.634Z,75.84
2023-05-23T07:41:09.820Z,75.65
2023-05-23T07:44:54.494Z,75.60
2023-05-23T07:48:37.191Z,75.69
2023-05-23T07:52:20.007Z,75.33
2023-05-23T07:56:04.148Z,75.02
2023-05-23T07:59:47.080Z,75.17
2023-05-23T08:03:29.817Z,76.31
2023-05-23T08:07:12.943Z,78.44
2023-05-23T08:10:55.684Z,79.98
2023-05-23T08:14:50.865Z,78.97
2023-05-23T08:18:36.266Z,77.80
2023-05-23T08:22:19.087Z,76.99
2023-05-23T08:26:02.172Z,75.19
2023-05-23T08:29:46.500Z,73.94
2023-05-23T08:33:29.239Z,72.85
2023-05-23T08:37:12.189Z,71.94
2023-05-23T08:40:55.974Z,71.38
2023-05-23T08:44:38.786Z,71.27
2023-05-23T08:48:22.900Z,70.71
2023-05-23T08:52:06.269Z,70.46
2023-05-23T08:55:51.232Z,70.03
2023-05-23T08:59:35.163Z,70.43
2023-05-23T09:03:18.789Z,70.69
2023-05-23T09:07:04.299Z,70.12
2023-05-23T09:10:47.398Z,69.21
2023-05-23T09:14:31.965Z,68.15
2023-05-23T09:18:14.818Z,68.59
2023-05-23T09:21:57.565Z,68.90
2023-05-23T09:25:47.489Z,68.57
2023-05-23T09:29:30.178Z,69.04
2023-05-23T09:33:15.328Z,69.25
2023-05-23T09:36:58.273Z,69.27
2023-05-23T09:40:46.233Z,68.37
2023-05-23T09:44:29.933Z,69.04
2023-05-23T09:48:14.168Z,68.91
2023-05-23T09:52:00.760Z,69.64
2023-05-23T09:55:44.823Z,70.32
2023-05-23T09:59:29.859Z,69.28
2023-05-23T10:03:14.268Z,69.71
2023-05-23T10:07:00.255Z,70.36
2023-05-23T10:11:16.979Z,69.59
2023-05-23T10:15:04.073Z,69.77
2023-05-23T10:18:50.577Z,68.77
2023-05-23T10:22:33.725Z,69.24
2023-05-23T10:26:16.808Z,70.37
2023-05-23T10:30:01.970Z,70.70
2023-05-23T10:33:48.959Z,71.39
2023-05-23T10:37:36.729Z,71.46
2023-05-23T10:41:24.358Z,71.05
2023-05-23T10:45:18.841Z,70.56
2023-05-23T10:49:01.626Z,68.08
2023-05-23T10:52:45.090Z,67.04
2023-05-23T10:56:32.785Z,66.11
2023-05-23T11:00:17.935Z,64.09
2023-05-23T11:04:06.809Z,62.95
2023-05-23T11:08:07.920Z,62.89
2023-05-23T11:11:55.211Z,62.02
2023-05-23T11:15:45.906Z,59.88
2023-05-23T11:19:30.037Z,60.39
2023-05-23T11:23:13.693Z,59.59
2023-05-23T11:27:00.432Z,60.22
2023-05-23T11:30:43.374Z,59.92
2023-05-23T11:34:27.988Z,60.92
2023-05-23T11:38:11.337Z,58.87
2023-05-23T11:42:00.914Z,57.93
2023-05-23T11:45:46.797Z,56.94
2023-05-23T11:49:31.633Z,55.80
2023-05-23T11:53:17.112Z,55.97
2023-05-23T11:57:00.248Z,56.53
2023-05-23T12:00:46.343Z,56.07
2023-05-23T12:04:29.309Z,56.54
2023-05-23T12:08:17.700Z,57.15
2023-05-23T12:12:00.477Z,56.80
2023-05-23T12:15:43.255Z,56.95
2023-05-23T12:19:26.173Z,54.92
2023-05-23T12:23:09.231Z,55.33
2023-05-23T12:26:54.994Z,54.60
2023-05-23T12:30:43.279Z,52.85
2023-05-23T12:34:26.319Z,53.62
2023-05-23T12:38:09.507Z,54.92
2023-05-23T12:41:53.610Z,56.53
2023-05-23T12:45:37.623Z,57.57
2023-05-23T12:49:21.798Z,58.44
2023-05-23T12:53:04.479Z,55.49
2023-05-23T12:56:47.181Z,54.98
2023-05-23T13:00:31.910Z,55.10
2023-05-23T13:04:14.748Z,53.71
2023-05-23T13:07:59.469Z,52.38
2023-05-23T13:11:42.730Z,51.60
2023-05-23T13:15:25.491Z,51.49
2023-05-23T13:19:09.696Z,50.62
2023-05-23T13:22:52.483Z,51.39
2023-05-23T13:26:35.185Z,51.67
2023-05-23T13:30:21.051Z,50.05
2023-05-23T13:34:03.787Z,49.32
2023-05-23T13:37:47.916Z,47.88
2023-05-23T13:41:30.672Z,48.73
2023-05-23T13:45:13.366Z,48.39
2023-05-23T13:48:56.076Z,45.98
2023-05-23T13:52:40.311Z,46.99
2023-05-23T13:56:27.217Z,48.77
2023-05-23T14:00:11.579Z,48.54
2023-05-23T14:03:54.467Z,47.66
2023-05-23T14:07:38.360Z,45.98
2023-05-23T14:11:21.239Z,46.08
2023-05-23T14:15:06.061Z,46.32
2023-05-23T14:18:48.860Z,46.77
2023-05-23T14:22:31.573Z,48.12
2023-05-23T14:26:16.939Z,48.09
2023-05-23T14:29:59.624Z,48.26
2023-05-23T14:33:43.718Z,50.25
2023-05-23T14:37:26.431Z,52.57
2023-05-23T14:41:09.255Z,52.46
2023-05-23T14:44:54.330Z,52.47
2023-05-23T14:48:37.664Z,50.55
2023-05-23T14:52:21.965Z,51.43
2023-05-23T14:56:04.812Z,50.99
2023-05-23T14:59:48.009Z,51.85
2023-05-23T15:03:30.793Z,50.82
2023-05-23T15:07:14.828Z,51.08
2023-05-23T15:10:58.972Z,51.44
2023-05-23T15:14:41.905Z,51.79
2023-05-23T15:18:38.888Z,52.62
2023-05-23T15:22:37.922Z,53.24
2023-05-23T15:26:23.900Z,53.06
2023-05-23T15:30:07.999Z,52.23
2023-05-23T15:33:50.871Z,52.27
2023-05-23T15:37:33.604Z,52.13
2023-05-23T15:41:17.713Z,52.51
2023-05-23T15:45:01.913Z,52.89
2023-05-23T15:48:44.847Z,52.36
2023-05-23T15:52:27.654Z,51.52
2023-05-23T15:56:10.731Z,50.68
2023-05-23T15:59:53.406Z,49.38
2023-05-23T16:03:38.201Z,48.66
2023-05-23T16:07:20.930Z,49.24
2023-05-23T16:11:03.613Z,50.29
2023-05-23T16:14:46.365Z,50.23
2023-05-23T16:18:29.210Z,49.66
2023-05-23T16:22:13.316Z,47.31
2023-05-23T16:25:56.037Z,43.33
2023-05-23T16:29:38.826Z,43.07
2023-05-23T16:33:22.830Z,44.91
2023-05-23T16:37:06.012Z,46.79
2023-05-23T16:40:50.105Z,47.75
2023-05-23T16:44:32.868Z,48.30
2023-05-23T16:48:15.608Z,48.55
2023-05-23T16:51:58.323Z,49.54
2023-05-23T16:55:41.358Z,49.77
2023-05-23T16:59:25.631Z,50.95
2023-05-23T17:03:08.540Z,51.17
2023-05-23T17:06:51.389Z,51.46
2023-05-23T17:10:34.865Z,51.59
2023-05-23T17:14:17.648Z,51.38
2023-05-23T17:18:01.814Z,52.11
2023-05-23T17:21:44.666Z,52.33
2023-05-23T17:25:27.436Z,52.70
2023-05-23T17:29:10.415Z,53.31
2023-05-23T17:32:53.336Z,53.46
2023-05-23T17:36:37.783Z,53.03
2023-05-23T17:40:20.928Z,53.80
2023-05-23T17:44:03.726Z,54.10
2023-05-23T17:47:47.184Z,54.24
2023-05-23T17:51:29.951Z,53.54
2023-05-23T17:55:14.052Z,53.56
2023-05-23T17:58:57.152Z,53.99
2023-05-23T18:02:40.087Z,53.95
2023-05-23T18:06:22.993Z,54.60
2023-05-23T18:10:08.363Z,54.16
2023-05-23T18:13:52.551Z,53.59
2023-05-23T18:17:38.614Z,52.97
2023-05-23T18:21:21.878Z,51.96
2023-05-23T18:25:05.186Z,52.50
2023-05-23T18:28:47.996Z,52.08
2023-05-23T18:32:32.477Z,52.05
2023-05-23T18:36:15.233Z,51.46
2023-05-23T18:39:59.341Z,51.75
2023-05-23T18:43:42.094Z,51.33
2023-05-23T18:47:24.842Z,51.28
2023-05-23T18:51:09.429Z,51.74
2023-05-23T18:54:53.904Z,51.75
2023-05-23T18:58:37.142Z,51.97
2023-05-23T19:02:20.280Z,51.84
2023-05-23T19:06:03.392Z,52.16
2023-05-23T19:09:47.609Z,51.90
2023-05-23T19:13:30.707Z,52.58
2023-05-23T19:17:13.519Z,53.27
2023-05-23T19:20:56.537Z,53.93
2023-05-23T19:24:39.538Z,54.56
2023-05-23T19:28:23.651Z,54.95
2023-05-23T19:32:06.739Z,55.41
2023-05-23T19:35:49.617Z,55.64
2023-05-23T19:39:32.430Z,56.11
2023-05-23T19:43:15.196Z,56.79
2023-05-23T19:46:59.507Z,57.28
2023-05-23T19:50:43.447Z,57.40
2023-05-23T19:54:28.056Z,57.75
2023-05-23T19:58:10.977Z,57.74
2023-05-23T20:01:54.008Z,58.30
2023-05-23T20:05:38.167Z,58.85
2023-05-23T20:09:21.334Z,59.25
2023-05-23T20:13:04.361Z,59.41
2023-05-23T20:16:47.217Z,59.47
2023-05-23T20:20:29.955Z,59.55
2023-05-23T20:24:14.955Z,60.15
2023-05-23T20:27:57.739Z,60.18
2023-05-23T20:31:40.581Z,60.39
2023-05-23T20:35:24.082Z,60.55
2023-05-23T20:39:07.243Z,60.76
2023-05-23T20:42:54.112Z,60.99
2023-05-23T20:46:36.976Z,61.10
2023-05-23T20:50:22.009Z,61.09
2023-05-23T20:54:05.302Z,61.46
2023-05-23T20:57:48.085Z,61.71
2023-05-23T21:01:32.979Z,62.28
2023-05-23T21:05:15.981Z,62.39
2023-05-23T21:08:58.722Z,62.71
2023-05-23T21:12:47.003Z,63.16
2023-05-23T21:16:31.310Z,63.60
2023-05-23T21:20:17.281Z,63.77
2023-05-23T21:24:00.031Z,64.11
2023-05-23T21:27:43.220Z,64.53
2023-05-23T21:31:40.259Z,65.32
2023-05-23T21:35:25.363Z,65.70
2023-05-23T21:39:08.288Z,65.94
2023-05-23T21:42:50.997Z,66.10
2023-05-23T21:46:33.819Z,66.48
2023-05-23T21:50:16.610Z,67.13
2023-05-23T21:54:00.693Z,67.55
2023-05-23T21:57:43.382Z,68.04
2023-05-23T22:01:28.523Z,68.64
2023-05-23T22:05:11.340Z,68.87
2023-05-23T22:08:54.272Z,69.16
2023-05-23T22:12:38.748Z,69.76
2023-05-23T22:16:22.003Z,70.54
2023-05-23T22:20:06.435Z,70.65
2023-05-23T22:23:49.158Z,71.21
2023-05-23T22:27:34.638Z,71.79
2023-05-23T22:31:18.742Z,72.00
2023-05-23T22:35:01.561Z,72.16
2023-05-23T22:38:44.328Z,72.08
2023-05-23T22:42:27.128Z,72.23
2023-05-23T22:46:10.040Z,72.17
2023-05-23T22:49:56.517Z,73.09
2023-05-23T22:53:39.376Z,73.51
2023-05-23T22:57:22.164Z,73.75
2023-05-23T23:01:05.123Z,73.38
2023-05-23T23:04:48.334Z,73.80
2023-05-23T23:08:32.427Z,74.34
2023-05-23T23:12:15.109Z,74.73
2023-05-23T23:15:59.115Z,74.83
2023-05-23T23:19:42.532Z,75.36
2023-05-23T23:23:25.254Z,75.40
2023-05-23T23:27:09.325Z,74.77
2023-05-23T23:30:52.261Z,74.11
2023-05-23T23:34:34.925Z,73.82
2023-05-23T23:38:17.614Z,73.23
2023-05-23T23:42:00.376Z,73.11
2023-05-23T23:45:44.447Z,73.99
2023-05-23T23:49:27.131Z,74.01
2023-05-23T23:53:10.044Z,74.35
2023-05-23T23:56:52.758Z,73.96
